createdAt,value
2022-08-29T00:01:46.492Z,65.79
2022-08-29T00:04:19.996Z,65.88
2022-08-29T00:06:53.304Z,66.01
2022-08-29T00:09:26.856Z,65.96
2022-08-29T00:12:00.326Z,66.25
2022-08-29T00:14:34.672Z,66.19
2022-08-29T00:17:08.818Z,66.26
2022-08-29T00:19:42.231Z,66.28
2022-08-29T00:22:15.422Z,66.35
2022-08-29T00:24:49.108Z,66.52
2022-08-29T00:27:22.425Z,66.78
2022-08-29T00:29:56.305Z,67.19
2022-08-29T00:32:35.757Z,67.20
2022-08-29T00:35:12.293Z,67.51
2022-08-29T00:37:46.311Z,67.75
2022-08-29T00:40:22.871Z,67.80
2022-08-29T00:42:56.381Z,68.04
2022-08-29T00:45:30.332Z,68.18
2022-08-29T00:48:07.406Z,68.34
2022-08-29T00:50:45.088Z,68.63
2022-08-29T00:53:20.929Z,68.74
2022-08-29T00:55:54.422Z,68.80
2022-08-29T00:58:30.602Z,68.81
2022-08-29T01:01:04.358Z,68.69
2022-08-29T01:03:42.737Z,68.81
2022-08-29T01:06:17.292Z,69.38
2022-08-29T01:08:57.376Z,69.24
2022-08-29T01:11:50.338Z,69.42
2022-08-29T01:14:25.790Z,69.26
2022-08-29T01:17:01.895Z,69.26
2022-08-29T01:19:47.212Z,69.44
2022-08-29T01:22:41.273Z,69.53
2022-08-29T01:25:18.460Z,69.79
2022-08-29T01:27:58.663Z,69.72
2022-08-29T01:30:32.369Z,69.82
2022-08-29T01:33:05.974Z,69.81
2022-08-29T01:35:40.164Z,69.96
2022-08-29T01:38:28.096Z,70.09
2022-08-29T01:41:02.425Z,70.59
2022-08-29T01:43:42.926Z,70.66
2022-08-29T01:46:18.364Z,70.67
2022-08-29T01:48:51.837Z,71.14
2022-08-29T01:51:25.985Z,71.29
2022-08-29T01:53:59.487Z,71.49
2022-08-29T01:56:34.884Z,71.48
2022-08-29T01:59:11.185Z,71.59
2022-08-29T02:01:49.318Z,71.63
2022-08-29T02:04:23.496Z,71.72
2022-08-29T02:06:57.295Z,71.52
2022-08-29T02:09:31.769Z,71.49
2022-08-29T02:12:07.455Z,71.35
2022-08-29T02:14:40.920Z,71.33
2022-08-29T02:17:14.814Z,71.36
2022-08-29T02:19:48.181Z,71.25
2022-08-29T02:22:21.882Z,71.37
2022-08-29T02:24:55.770Z,71.25
2022-08-29T02:27:29.676Z,71.44
2022-08-29T02:30:03.114Z,71.49
2022-08-29T02:32:36.707Z,71.74
2022-08-29T02:35:10.605Z,71.78
2022-08-29T02:37:44.784Z,71.74
2022-08-29T02:40:18.486Z,71.90
2022-08-29T02:42:52.059Z,71.92
2022-08-29T02:45:26.271Z,71.97
2022-08-29T02:48:00.059Z,71.91
2022-08-29T02:50:33.547Z,71.79
2022-08-29T02:53:07.011Z,71.90
2022-08-29T02:55:40.559Z,71.78
2022-08-29T02:58:14.366Z,71.82
2022-08-29T03:00:48.399Z,71.82
2022-08-29T03:03:22.782Z,71.93
2022-08-29T03:05:57.091Z,71.95
2022-08-29T03:08:31.148Z,71.97
2022-08-29T03:11:05.391Z,72.00
2022-08-29T03:13:39.344Z,72.00
2022-08-29T03:16:12.993Z,72.17
2022-08-29T03:18:46.752Z,72.18
2022-08-29T03:21:23.005Z,72.11
2022-08-29T03:23:57.326Z,72.29
2022-08-29T03:26:30.876Z,72.31
2022-08-29T03:29:04.338Z,72.28
2022-08-29T03:31:37.749Z,72.37
2022-08-29T03:34:11.196Z,72.56
2022-08-29T03:36:44.822Z,72.36
2022-08-29T03:39:17.981Z,72.54
2022-08-29T03:41:51.552Z,72.64
2022-08-29T03:44:25.391Z,72.73
2022-08-29T03:46:59.089Z,72.66
2022-08-29T03:49:32.786Z,72.63
2022-08-29T03:52:06.440Z,72.62
2022-08-29T03:54:40.186Z,72.66
2022-08-29T03:57:13.647Z,72.83
2022-08-29T03:59:48.555Z,72.88
2022-08-29T04:02:27.829Z,72.91
2022-08-29T04:05:09.011Z,72.99
2022-08-29T04:07:49.670Z,72.69
2022-08-29T04:10:27.273Z,72.65
2022-08-29T04:13:00.822Z,72.74
2022-08-29T04:15:34.593Z,72.68
2022-08-29T04:18:11.209Z,72.46
2022-08-29T04:20:46.284Z,72.40
2022-08-29T04:23:19.815Z,72.57
2022-08-29T04:26:07.277Z,72.50
2022-08-29T04:28:47.925Z,72.36
2022-08-29T04:31:22.481Z,72.40
2022-08-29T04:33:55.871Z,72.46
2022-08-29T04:36:30.212Z,72.47
2022-08-29T04:39:03.743Z,72.42
2022-08-29T04:41:37.653Z,72.30
2022-08-29T04:44:12.385Z,72.25
2022-08-29T04:46:45.875Z,72.27
2022-08-29T04:49:20.048Z,72.23
2022-08-29T04:51:55.568Z,71.91
2022-08-29T04:54:28.871Z,71.82
2022-08-29T04:57:05.577Z,71.62
2022-08-29T04:59:40.193Z,71.33
2022-08-29T05:02:13.970Z,71.33
2022-08-29T05:04:48.521Z,71.40
2022-08-29T05:07:22.773Z,71.34
2022-08-29T05:10:01.345Z,71.27
2022-08-29T05:12:33.969Z,71.30
2022-08-29T05:15:08.829Z,71.23
2022-08-29T05:17:42.445Z,71.10
2022-08-29T05:20:17.321Z,71.01
2022-08-29T05:22:50.903Z,70.95
2022-08-29T05:25:24.540Z,70.89
2022-08-29T05:27:58.073Z,70.81
2022-08-29T05:30:34.941Z,70.57
2022-08-29T05:33:09.219Z,70.49
2022-08-29T05:35:42.443Z,70.52
2022-08-29T05:38:16.589Z,70.52
2022-08-29T05:40:50.011Z,70.71
2022-08-29T05:43:23.554Z,70.34
2022-08-29T05:46:04.333Z,70.49
2022-08-29T05:48:41.242Z,70.35
2022-08-29T05:51:21.610Z,70.38
2022-08-29T05:53:55.096Z,70.43
2022-08-29T05:56:30.769Z,70.41
2022-08-29T05:59:04.357Z,70.57
2022-08-29T06:01:37.858Z,70.64
2022-08-29T06:04:11.797Z,70.63
2022-08-29T06:06:44.937Z,70.64
2022-08-29T06:09:18.527Z,70.75
2022-08-29T06:11:54.691Z,70.62
2022-08-29T06:14:29.151Z,70.58
2022-08-29T06:17:02.590Z,70.36
2022-08-29T06:19:36.367Z,70.23
2022-08-29T06:22:11.037Z,70.19
2022-08-29T06:24:45.621Z,70.16
2022-08-29T06:27:20.738Z,70.12
2022-08-29T06:29:53.902Z,69.90
2022-08-29T06:32:27.633Z,69.67
2022-08-29T06:35:01.670Z,69.41
2022-08-29T06:37:35.537Z,69.19
2022-08-29T06:40:10.756Z,69.01
2022-08-29T06:42:44.302Z,68.93
2022-08-29T06:45:17.813Z,68.87
2022-08-29T06:47:51.546Z,68.58
2022-08-29T06:50:25.122Z,68.58
2022-08-29T06:53:09.331Z,68.39
2022-08-29T06:55:52.633Z,68.18
2022-08-29T06:58:26.727Z,67.94
2022-08-29T07:01:00.305Z,67.87
2022-08-29T07:03:33.549Z,67.57
2022-08-29T07:06:07.485Z,67.24
2022-08-29T07:08:55.422Z,67.31
2022-08-29T07:11:31.712Z,67.15
2022-08-29T07:14:06.537Z,67.22
2022-08-29T07:16:40.546Z,67.04
2022-08-29T07:19:14.198Z,66.95
2022-08-29T07:21:49.264Z,66.59
2022-08-29T07:24:24.866Z,66.66
2022-08-29T07:26:58.803Z,66.55
2022-08-29T07:29:32.285Z,66.49
2022-08-29T07:32:06.058Z,66.29
2022-08-29T07:34:39.672Z,66.30
2022-08-29T07:37:13.103Z,66.28
2022-08-29T07:39:46.763Z,66.49
2022-08-29T07:42:20.162Z,66.81
2022-08-29T07:44:53.568Z,66.59
2022-08-29T07:47:27.535Z,66.75
2022-08-29T07:50:01.953Z,65.68
2022-08-29T07:52:35.945Z,65.27
2022-08-29T07:55:10.698Z,64.69
2022-08-29T07:57:46.638Z,64.42
2022-08-29T08:00:20.135Z,64.20
2022-08-29T08:02:53.549Z,64.03
2022-08-29T08:05:27.902Z,63.97
2022-08-29T08:08:05.260Z,63.79
2022-08-29T08:10:43.421Z,63.48
2022-08-29T08:13:17.456Z,63.49
2022-08-29T08:15:50.981Z,63.51
2022-08-29T08:18:26.018Z,63.62
2022-08-29T08:21:00.102Z,63.91
2022-08-29T08:23:33.693Z,64.18
2022-08-29T08:26:08.126Z,64.16
2022-08-29T08:28:42.779Z,64.41
2022-08-29T08:31:17.266Z,64.64
2022-08-29T08:33:50.882Z,64.72
2022-08-29T08:36:37.454Z,64.60
2022-08-29T08:39:15.150Z,64.45
2022-08-29T08:41:58.737Z,64.51
2022-08-29T08:44:52.165Z,64.43
2022-08-29T08:47:30.223Z,64.43
2022-08-29T08:50:13.370Z,64.32
2022-08-29T08:52:52.348Z,64.59
2022-08-29T08:55:35.120Z,64.67
2022-08-29T08:58:17.804Z,64.98
2022-08-29T09:00:56.971Z,64.82
2022-08-29T09:03:52.368Z,64.44
2022-08-29T09:06:40.501Z,63.95
2022-08-29T09:09:23.699Z,63.89
2022-08-29T09:12:05.666Z,63.60
2022-08-29T09:14:56.717Z,63.35
2022-08-29T09:17:37.464Z,62.08
2022-08-29T09:20:14.985Z,61.33
2022-08-29T09:23:00.056Z,60.34
2022-08-29T09:25:37.096Z,59.59
2022-08-29T09:28:12.431Z,59.57
2022-08-29T09:31:07.810Z,59.40
2022-08-29T09:33:46.696Z,59.15
2022-08-29T09:36:40.244Z,59.26
2022-08-29T09:39:25.488Z,58.72
2022-08-29T09:42:02.330Z,58.09
2022-08-29T09:44:37.613Z,57.88
2022-08-29T09:47:16.300Z,57.13
2022-08-29T09:50:08.140Z,57.57
2022-08-29T09:52:52.781Z,57.15
2022-08-29T09:55:45.279Z,56.57
2022-08-29T09:58:39.716Z,56.64
2022-08-29T10:01:26.991Z,55.47
2022-08-29T10:04:05.604Z,55.26
2022-08-29T10:06:45.154Z,54.30
2022-08-29T10:09:30.519Z,53.68
2022-08-29T10:12:10.320Z,53.25
2022-08-29T10:14:50.550Z,53.12
2022-08-29T10:17:48.665Z,53.01
2022-08-29T10:20:21.482Z,52.00
2022-08-29T10:23:02.739Z,51.80
2022-08-29T10:25:39.823Z,51.77
2022-08-29T10:28:20.108Z,51.96
2022-08-29T10:30:57.948Z,51.32
2022-08-29T10:33:47.655Z,51.33
2022-08-29T10:36:24.264Z,51.48
2022-08-29T10:39:04.765Z,51.42
2022-08-29T10:41:50.264Z,51.56
2022-08-29T10:44:35.644Z,51.31
2022-08-29T10:47:26.102Z,50.87
2022-08-29T10:50:42.548Z,50.73
2022-08-29T10:53:21.594Z,51.04
2022-08-29T10:56:00.263Z,50.67
2022-08-29T10:58:50.133Z,50.12
2022-08-29T11:01:29.838Z,49.79
2022-08-29T11:04:17.982Z,49.66
2022-08-29T11:07:02.495Z,49.55
2022-08-29T11:09:41.247Z,49.36
2022-08-29T11:12:19.360Z,49.33
2022-08-29T11:14:59.052Z,49.35
2022-08-29T11:17:36.273Z,48.87
2022-08-29T11:20:16.202Z,48.68
2022-08-29T11:22:53.753Z,49.00
2022-08-29T11:25:28.137Z,48.18
2022-08-29T11:28:10.784Z,47.79
2022-08-29T11:30:49.236Z,47.70
2022-08-29T11:33:34.454Z,47.60
2022-08-29T11:36:30.695Z,47.73
2022-08-29T11:39:36.740Z,47.15
2022-08-29T11:42:13.760Z,47.05
2022-08-29T11:44:51.240Z,46.67
2022-08-29T11:47:41.503Z,46.72
2022-08-29T11:50:30.201Z,46.91
2022-08-29T11:53:16.789Z,46.60
2022-08-29T11:56:27.921Z,46.96
2022-08-29T11:59:03.789Z,46.55
2022-08-29T12:02:02.717Z,46.60
2022-08-29T12:04:56.976Z,46.30
2022-08-29T12:07:42.771Z,45.62
2022-08-29T12:10:28.556Z,45.77
2022-08-29T12:13:03.941Z,45.98
2022-08-29T12:15:53.603Z,45.31
2022-08-29T12:18:47.009Z,44.61
2022-08-29T12:21:52.429Z,43.98
2022-08-29T12:24:43.274Z,42.21
2022-08-29T12:27:50.134Z,41.38
2022-08-29T12:30:24.140Z,41.06
2022-08-29T12:33:07.041Z,40.48
2022-08-29T12:36:05.896Z,40.84
2022-08-29T12:38:50.558Z,41.31
2022-08-29T12:41:51.430Z,41.28
2022-08-29T12:44:31.266Z,41.64
2022-08-29T12:47:11.069Z,40.67
2022-08-29T12:49:51.988Z,40.57
2022-08-29T12:52:32.458Z,40.03
2022-08-29T12:55:28.723Z,40.33
2022-08-29T12:58:02.659Z,40.66
2022-08-29T13:00:37.191Z,39.95
2022-08-29T13:03:15.404Z,40.28
2022-08-29T13:05:47.857Z,40.14
2022-08-29T13:08:33.972Z,39.54
2022-08-29T13:11:10.377Z,40.06
2022-08-29T13:13:43.839Z,40.26
2022-08-29T13:16:30.627Z,40.06
2022-08-29T13:19:11.930Z,40.16
2022-08-29T13:21:45.866Z,40.28
2022-08-29T13:24:22.250Z,40.42
2022-08-29T13:27:05.389Z,40.39
2022-08-29T13:29:42.353Z,40.56
2022-08-29T13:32:32.755Z,40.65
2022-08-29T13:35:20.309Z,40.63
2022-08-29T13:38:19.631Z,40.61
2022-08-29T13:40:55.247Z,40.36
2022-08-29T13:43:37.925Z,40.35
2022-08-29T13:46:24.036Z,40.47
2022-08-29T13:49:05.100Z,39.89
2022-08-29T13:51:38.531Z,39.87
2022-08-29T13:54:12.422Z,40.09
2022-08-29T13:56:48.883Z,40.25
2022-08-29T13:59:24.521Z,40.28
2022-08-29T14:02:13.385Z,39.56
2022-08-29T14:04:49.044Z,39.71
2022-08-29T14:07:30.732Z,39.49
2022-08-29T14:10:04.512Z,39.10
2022-08-29T14:12:37.626Z,39.44
2022-08-29T14:15:17.940Z,39.32
2022-08-29T14:17:51.601Z,39.53
2022-08-29T14:20:25.235Z,39.57
2022-08-29T14:22:58.854Z,39.51
2022-08-29T14:25:32.706Z,39.79
2022-08-29T14:28:07.082Z,39.95
2022-08-29T14:30:40.448Z,39.71
2022-08-29T14:33:23.918Z,39.66
2022-08-29T14:35:57.617Z,39.76
2022-08-29T14:38:34.580Z,39.85
2022-08-29T14:41:07.962Z,39.98
2022-08-29T14:43:41.861Z,39.88
2022-08-29T14:46:15.314Z,39.78
2022-08-29T14:48:49.081Z,40.10
2022-08-29T14:51:23.092Z,39.97
2022-08-29T14:53:56.852Z,39.99
2022-08-29T14:56:50.121Z,40.07
2022-08-29T14:59:25.917Z,40.12
2022-08-29T15:01:59.485Z,40.11
2022-08-29T15:04:37.371Z,40.07
2022-08-29T15:07:15.704Z,40.25
2022-08-29T15:09:49.314Z,40.10
2022-08-29T15:12:25.347Z,39.77
2022-08-29T15:14:58.891Z,40.01
2022-08-29T15:17:32.447Z,40.34
2022-08-29T15:23:01.732Z,40.49
2022-08-29T15:25:36.057Z,40.69
2022-08-29T15:28:11.581Z,40.73
2022-08-29T15:30:47.620Z,41.03
2022-08-29T15:33:21.326Z,41.05
2022-08-29T15:35:55.330Z,40.96
2022-08-29T15:38:28.992Z,41.08
2022-08-29T15:41:02.830Z,41.14
2022-08-29T15:43:37.169Z,41.05
2022-08-29T15:46:10.505Z,41.16
2022-08-29T15:48:43.674Z,41.40
2022-08-29T15:51:17.422Z,41.61
2022-08-29T15:53:50.791Z,41.57
2022-08-29T15:56:23.944Z,41.78
2022-08-29T15:58:58.706Z,41.90
2022-08-29T16:01:32.329Z,42.00
2022-08-29T16:04:06.888Z,41.98
2022-08-29T16:06:40.196Z,42.20
2022-08-29T16:09:15.735Z,42.01
2022-08-29T16:11:50.633Z,41.90
2022-08-29T16:17:19.399Z,42.01
2022-08-29T16:19:52.936Z,41.82
2022-08-29T16:22:26.797Z,42.07
2022-08-29T16:25:00.397Z,42.15
2022-08-29T16:27:33.735Z,42.09
2022-08-29T16:30:10.214Z,42.17
2022-08-29T16:32:43.629Z,42.21
2022-08-29T16:35:17.277Z,42.24
2022-08-29T16:38:02.329Z,42.45
2022-08-29T16:40:37.244Z,42.56
2022-08-29T16:43:12.058Z,42.61
2022-08-29T16:45:45.781Z,42.81
2022-08-29T16:48:19.754Z,42.74
2022-08-29T16:50:54.187Z,42.77
2022-08-29T16:53:27.361Z,42.85
2022-08-29T16:56:02.902Z,43.05
2022-08-29T16:58:53.984Z,43.20
2022-08-29T17:01:27.798Z,43.30
2022-08-29T17:04:02.966Z,43.39
2022-08-29T17:06:36.877Z,43.44
2022-08-29T17:09:09.467Z,43.70
2022-08-29T17:11:41.587Z,43.73
2022-08-29T17:14:14.653Z,44.05
2022-08-29T17:16:50.557Z,44.07
2022-08-29T17:19:25.659Z,44.31
2022-08-29T17:21:59.515Z,44.44
2022-08-29T17:24:33.125Z,44.40
2022-08-29T17:27:06.745Z,44.54
2022-08-29T17:29:42.317Z,44.63
2022-08-29T17:32:16.274Z,44.77
2022-08-29T17:34:50.632Z,45.06
2022-08-29T17:37:24.341Z,45.23
2022-08-29T17:39:58.082Z,45.30
2022-08-29T17:42:32.656Z,45.47
2022-08-29T17:45:06.989Z,45.60
2022-08-29T17:47:40.229Z,45.71
2022-08-29T17:50:15.070Z,45.93
2022-08-29T17:52:48.319Z,46.09
2022-08-29T17:55:21.615Z,46.06
2022-08-29T17:57:55.118Z,46.31
2022-08-29T18:00:29.131Z,46.49
2022-08-29T18:03:02.596Z,46.71
2022-08-29T18:05:36.107Z,46.58
2022-08-29T18:08:09.729Z,46.81
2022-08-29T18:10:43.164Z,46.94
2022-08-29T18:13:21.432Z,47.14
2022-08-29T18:15:55.421Z,47.35
2022-08-29T18:18:28.974Z,47.48
2022-08-29T18:21:03.101Z,47.62
2022-08-29T18:23:36.881Z,47.72
2022-08-29T18:26:10.288Z,47.92
2022-08-29T18:28:43.550Z,48.12
2022-08-29T18:31:18.457Z,48.44
2022-08-29T18:34:01.261Z,48.51
2022-08-29T18:36:37.666Z,48.55
2022-08-29T18:39:12.043Z,48.73
2022-08-29T18:41:45.656Z,48.90
2022-08-29T18:44:19.277Z,49.11
2022-08-29T18:46:52.619Z,49.29
2022-08-29T18:49:47.253Z,49.44
2022-08-29T18:52:21.951Z,49.66
2022-08-29T18:54:55.546Z,49.77
2022-08-29T18:57:29.005Z,49.90
2022-08-29T19:00:02.463Z,50.12
2022-08-29T19:02:35.949Z,50.20
2022-08-29T19:05:11.393Z,50.25
2022-08-29T19:07:45.271Z,50.45
2022-08-29T19:10:18.654Z,50.61
2022-08-29T19:12:51.858Z,50.67
2022-08-29T19:15:27.801Z,50.81
2022-08-29T19:18:02.098Z,50.97
2022-08-29T19:20:53.562Z,50.84
2022-08-29T19:23:27.480Z,51.15
2022-08-29T19:26:00.821Z,51.35
2022-08-29T19:28:34.939Z,51.55
2022-08-29T19:31:09.494Z,51.63
2022-08-29T19:33:43.347Z,51.77
2022-08-29T19:36:17.931Z,51.84
2022-08-29T19:38:51.911Z,52.08
2022-08-29T19:41:25.530Z,52.18
2022-08-29T19:44:00.611Z,52.31
2022-08-29T19:46:36.839Z,52.50
2022-08-29T19:49:10.527Z,52.68
2022-08-29T19:51:44.460Z,52.89
2022-08-29T19:54:18.090Z,53.04
2022-08-29T19:56:51.671Z,53.10
2022-08-29T19:59:24.864Z,53.15
2022-08-29T20:01:58.341Z,53.36
2022-08-29T20:04:32.139Z,53.45
2022-08-29T20:07:05.664Z,53.50
2022-08-29T20:09:39.966Z,53.60
2022-08-29T20:12:13.359Z,53.76
2022-08-29T20:14:47.481Z,53.88
2022-08-29T20:17:21.157Z,54.03
2022-08-29T20:19:54.321Z,54.24
2022-08-29T20:22:29.799Z,54.23
2022-08-29T20:25:03.612Z,54.43
2022-08-29T20:27:37.650Z,54.57
2022-08-29T20:30:14.831Z,54.64
2022-08-29T20:32:49.612Z,54.70
2022-08-29T20:35:38.051Z,54.82
2022-08-29T20:38:09.804Z,54.95
2022-08-29T20:40:47.088Z,55.31
2022-08-29T20:43:21.340Z,55.20
2022-08-29T20:45:55.237Z,55.39
2022-08-29T20:48:32.522Z,55.45
2022-08-29T20:51:07.699Z,55.59
2022-08-29T20:53:42.100Z,55.67
2022-08-29T20:56:15.932Z,55.66
2022-08-29T20:58:49.312Z,55.93
2022-08-29T21:01:23.053Z,55.98
2022-08-29T21:04:14.048Z,56.17
2022-08-29T21:06:47.612Z,56.32
2022-08-29T21:09:22.441Z,56.41
2022-08-29T21:11:56.504Z,56.64
2022-08-29T21:14:30.599Z,56.69
2022-08-29T21:17:05.182Z,56.82
2022-08-29T21:19:39.968Z,56.92
2022-08-29T21:22:14.777Z,57.03
2022-08-29T21:24:48.613Z,57.14
2022-08-29T21:27:22.211Z,57.19
2022-08-29T21:29:58.647Z,57.24
2022-08-29T21:32:32.056Z,57.41
2022-08-29T21:35:05.804Z,57.42
2022-08-29T21:37:39.977Z,57.49
2022-08-29T21:40:14.732Z,57.54
2022-08-29T21:42:48.662Z,57.66
2022-08-29T21:45:22.328Z,57.90
2022-08-29T21:47:58.810Z,57.95
2022-08-29T21:50:32.823Z,58.07
2022-08-29T21:53:06.110Z,58.12
2022-08-29T21:55:39.864Z,58.35
2022-08-29T21:58:13.250Z,58.37
2022-08-29T22:00:46.470Z,58.58
2022-08-29T22:03:20.018Z,58.71
2022-08-29T22:05:54.819Z,58.83
2022-08-29T22:08:28.187Z,58.96
2022-08-29T22:11:01.929Z,59.07
2022-08-29T22:13:35.114Z,59.17
2022-08-29T22:16:26.066Z,59.30
2022-08-29T22:19:04.983Z,59.37
2022-08-29T22:21:41.334Z,59.42
2022-08-29T22:24:16.169Z,59.53
2022-08-29T22:26:50.679Z,59.60
2022-08-29T22:29:24.666Z,59.70
2022-08-29T22:31:58.072Z,59.91
2022-08-29T22:34:31.447Z,59.92
2022-08-29T22:37:04.685Z,60.01
2022-08-29T22:39:38.335Z,60.25
2022-08-29T22:42:13.193Z,60.22
2022-08-29T22:45:03.276Z,60.34
2022-08-29T22:47:37.786Z,60.60
2022-08-29T22:50:14.628Z,60.64
2022-08-29T22:52:49.147Z,60.61
2022-08-29T22:57:57.555Z,60.92
2022-08-29T23:00:31.076Z,60.84
2022-08-29T23:03:04.637Z,61.07
2022-08-29T23:05:38.279Z,61.14
2022-08-29T23:08:11.419Z,61.08
2022-08-29T23:10:49.093Z,61.11
2022-08-29T23:13:23.210Z,61.30
2022-08-29T23:15:56.787Z,61.28
2022-08-29T23:18:30.061Z,61.43
2022-08-29T23:21:03.579Z,61.48
2022-08-29T23:23:38.525Z,61.48
2022-08-29T23:26:11.741Z,61.42
2022-08-29T23:28:45.466Z,61.54
2022-08-29T23:31:20.635Z,61.62
2022-08-29T23:33:55.047Z,61.50
2022-08-29T23:36:28.724Z,61.59
2022-08-29T23:39:01.901Z,61.71
2022-08-29T23:41:35.116Z,61.75
2022-08-29T23:44:08.723Z,61.79
2022-08-29T23:46:42.155Z,61.80
2022-08-29T23:49:15.524Z,61.78
2022-08-29T23:51:49.140Z,61.93
2022-08-29T23:54:22.675Z,61.94
2022-08-29T23:56:56.585Z,62.09
2022-08-29T23:59:47.179Z,62.17
